sensor_id;sensor_type;location;lat;lon;timestamp;P1;durP1;ratioP1;P2;durP2;ratioP2
37855;SDS011;23694;43.274;26.924;2022-10-16T00:00:40;20.37;;;15.43;;
37855;SDS011;23694;43.274;26.924;2022-10-16T00:03:07;20.50;;;15.80;;
37855;SDS011;23694;43.274;26.924;2022-10-16T00:05:41;21.47;;;15.90;;
37855;SDS011;23694;43.274;26.924;2022-10-16T00:08:09;20.83;;;16.07;;
37855;SDS011;23694;43.274;26.924;2022-10-16T00:10:39;19.30;;;14.77;;
37855;SDS011;23694;43.274;26.924;2022-10-16T00:13:06;24.07;;;16.60;;
37855;SDS011;23694;43.274;26.924;2022-10-16T00:15:33;23.27;;;16.87;;
37855;SDS011;23694;43.274;26.924;2022-10-16T00:18:02;22.17;;;16.70;;
37855;SDS011;23694;43.274;26.924;2022-10-16T00:20:29;22.07;;;15.50;;
37855;SDS011;23694;43.274;26.924;2022-10-16T00:22:56;24.20;;;16.80;;
37855;SDS011;23694;43.274;26.924;2022-10-16T00:25:23;110.53;;;74.67;;
37855;SDS011;23694;43.274;26.924;2022-10-16T00:27:49;26.83;;;19.17;;
37855;SDS011;23694;43.274;26.924;2022-10-16T00:30:15;23.93;;;16.97;;
37855;SDS011;23694;43.274;26.924;2022-10-16T00:32:41;21.10;;;15.80;;
37855;SDS011;23694;43.274;26.924;2022-10-16T00:35:07;21.37;;;16.10;;
37855;SDS011;23694;43.274;26.924;2022-10-16T00:37:33;21.93;;;15.17;;
37855;SDS011;23694;43.274;26.924;2022-10-16T00:39:59;20.43;;;15.37;;
37855;SDS011;23694;43.274;26.924;2022-10-16T00:42:25;22.13;;;15.43;;
37855;SDS011;23694;43.274;26.924;2022-10-16T00:44:53;19.93;;;15.70;;
37855;SDS011;23694;43.274;26.924;2022-10-16T00:47:24;22.97;;;15.07;;
37855;SDS011;23694;43.274;26.924;2022-10-16T00:49:56;22.00;;;14.57;;
37855;SDS011;23694;43.274;26.924;2022-10-16T00:52:47;20.95;;;13.77;;
37855;SDS011;23694;43.274;26.924;2022-10-16T00:55:15;20.87;;;14.30;;
37855;SDS011;23694;43.274;26.924;2022-10-16T00:57:42;19.23;;;14.17;;
37855;SDS011;23694;43.274;26.924;2022-10-16T01:00:10;20.13;;;13.63;;
37855;SDS011;23694;43.274;26.924;2022-10-16T01:02:38;18.97;;;13.90;;
37855;SDS011;23694;43.274;26.924;2022-10-16T01:05:04;18.17;;;12.97;;
37855;SDS011;23694;43.274;26.924;2022-10-16T01:10:35;19.13;;;12.30;;
37855;SDS011;23694;43.274;26.924;2022-10-16T01:13:10;16.73;;;13.13;;
37855;SDS011;23694;43.274;26.924;2022-10-16T01:15:59;23.67;;;13.10;;
37855;SDS011;23694;43.274;26.924;2022-10-16T01:18:46;18.20;;;12.70;;
37855;SDS011;23694;43.274;26.924;2022-10-16T01:31:39;19.47;;;11.80;;
37855;SDS011;23694;43.274;26.924;2022-10-16T01:34:11;14.90;;;11.90;;
37855;SDS011;23694;43.274;26.924;2022-10-16T01:36:47;19.27;;;11.70;;
37855;SDS011;23694;43.274;26.924;2022-10-16T01:39:17;14.13;;;10.53;;
37855;SDS011;23694;43.274;26.924;2022-10-16T01:44:32;18.03;;;11.53;;
37855;SDS011;23694;43.274;26.924;2022-10-16T01:47:02;16.00;;;12.07;;
37855;SDS011;23694;43.274;26.924;2022-10-16T01:49:31;17.07;;;12.07;;
37855;SDS011;23694;43.274;26.924;2022-10-16T01:51:59;17.63;;;12.93;;
37855;SDS011;23694;43.274;26.924;2022-10-16T01:54:31;19.45;;;12.13;;
37855;SDS011;23694;43.274;26.924;2022-10-16T01:57:00;16.43;;;12.70;;
37855;SDS011;23694;43.274;26.924;2022-10-16T01:59:29;17.37;;;11.90;;
37855;SDS011;23694;43.274;26.924;2022-10-16T02:01:59;20.63;;;13.43;;
37855;SDS011;23694;43.274;26.924;2022-10-16T02:04:31;15.87;;;12.60;;
37855;SDS011;23694;43.274;26.924;2022-10-16T02:07:02;18.30;;;13.13;;
37855;SDS011;23694;43.274;26.924;2022-10-16T02:09:29;16.83;;;12.73;;
37855;SDS011;23694;43.274;26.924;2022-10-16T02:11:58;19.50;;;13.70;;
37855;SDS011;23694;43.274;26.924;2022-10-16T02:14:29;19.83;;;13.47;;
37855;SDS011;23694;43.274;26.924;2022-10-16T02:16:55;18.30;;;14.17;;
37855;SDS011;23694;43.274;26.924;2022-10-16T02:19:21;19.13;;;14.20;;
37855;SDS011;23694;43.274;26.924;2022-10-16T02:21:49;19.97;;;14.97;;
37855;SDS011;23694;43.274;26.924;2022-10-16T02:27:11;23.50;;;13.63;;
37855;SDS011;23694;43.274;26.924;2022-10-16T02:30:05;18.07;;;13.80;;
37855;SDS011;23694;43.274;26.924;2022-10-16T02:32:37;20.60;;;14.07;;
37855;SDS011;23694;43.274;26.924;2022-10-16T02:35:06;17.07;;;13.40;;
37855;SDS011;23694;43.274;26.924;2022-10-16T02:37:34;19.27;;;13.40;;
37855;SDS011;23694;43.274;26.924;2022-10-16T02:40:01;17.03;;;13.10;;
37855;SDS011;23694;43.274;26.924;2022-10-16T02:42:34;18.50;;;13.57;;
37855;SDS011;23694;43.274;26.924;2022-10-16T02:45:03;18.97;;;13.60;;
37855;SDS011;23694;43.274;26.924;2022-10-16T02:47:30;17.83;;;14.07;;
37855;SDS011;23694;43.274;26.924;2022-10-16T02:49:56;16.83;;;13.73;;
37855;SDS011;23694;43.274;26.924;2022-10-16T02:52:22;18.03;;;14.37;;
37855;SDS011;23694;43.274;26.924;2022-10-16T02:54:48;19.07;;;14.30;;
37855;SDS011;23694;43.274;26.924;2022-10-16T02:57:14;19.10;;;14.63;;
37855;SDS011;23694;43.274;26.924;2022-10-16T02:59:41;18.10;;;14.80;;
37855;SDS011;23694;43.274;26.924;2022-10-16T03:02:07;19.93;;;14.93;;
37855;SDS011;23694;43.274;26.924;2022-10-16T03:04:34;22.07;;;14.87;;
37855;SDS011;23694;43.274;26.924;2022-10-16T03:07:00;22.67;;;15.80;;
37855;SDS011;23694;43.274;26.924;2022-10-16T03:09:26;18.37;;;15.23;;
37855;SDS011;23694;43.274;26.924;2022-10-16T03:11:52;21.47;;;16.00;;
37855;SDS011;23694;43.274;26.924;2022-10-16T03:14:18;21.60;;;15.83;;
37855;SDS011;23694;43.274;26.924;2022-10-16T03:16:44;22.93;;;15.77;;
37855;SDS011;23694;43.274;26.924;2022-10-16T03:19:10;18.50;;;15.87;;
37855;SDS011;23694;43.274;26.924;2022-10-16T03:21:36;20.70;;;16.63;;
37855;SDS011;23694;43.274;26.924;2022-10-16T03:24:03;22.13;;;16.90;;
37855;SDS011;23694;43.274;26.924;2022-10-16T03:26:29;20.20;;;16.77;;
37855;SDS011;23694;43.274;26.924;2022-10-16T03:28:55;20.47;;;16.73;;
37855;SDS011;23694;43.274;26.924;2022-10-16T03:31:21;19.17;;;16.10;;
37855;SDS011;23694;43.274;26.924;2022-10-16T03:33:47;22.07;;;16.80;;
37855;SDS011;23694;43.274;26.924;2022-10-16T03:36:13;18.80;;;15.77;;
37855;SDS011;23694;43.274;26.924;2022-10-16T03:38:39;27.03;;;15.37;;
37855;SDS011;23694;43.274;26.924;2022-10-16T03:41:05;18.90;;;15.83;;
37855;SDS011;23694;43.274;26.924;2022-10-16T03:43:33;21.07;;;16.07;;
37855;SDS011;23694;43.274;26.924;2022-10-16T03:45:59;18.43;;;15.30;;
37855;SDS011;23694;43.274;26.924;2022-10-16T03:48:26;19.83;;;15.97;;
37855;SDS011;23694;43.274;26.924;2022-10-16T03:50:53;20.60;;;16.03;;
37855;SDS011;23694;43.274;26.924;2022-10-16T03:53:19;17.23;;;15.33;;
37855;SDS011;23694;43.274;26.924;2022-10-16T03:55:45;18.33;;;15.37;;
37855;SDS011;23694;43.274;26.924;2022-10-16T03:58:11;20.40;;;15.23;;
37855;SDS011;23694;43.274;26.924;2022-10-16T04:00:44;19.30;;;15.30;;
37855;SDS011;23694;43.274;26.924;2022-10-16T04:03:11;18.57;;;15.17;;
37855;SDS011;23694;43.274;26.924;2022-10-16T04:05:37;20.37;;;14.43;;
37855;SDS011;23694;43.274;26.924;2022-10-16T04:08:03;18.60;;;14.57;;
37855;SDS011;23694;43.274;26.924;2022-10-16T04:10:29;18.43;;;14.07;;
37855;SDS011;23694;43.274;26.924;2022-10-16T04:12:56;20.00;;;14.57;;
37855;SDS011;23694;43.274;26.924;2022-10-16T04:15:22;21.43;;;13.47;;
37855;SDS011;23694;43.274;26.924;2022-10-16T04:17:49;18.43;;;14.80;;
37855;SDS011;23694;43.274;26.924;2022-10-16T04:20:16;19.13;;;13.37;;
37855;SDS011;23694;43.274;26.924;2022-10-16T04:22:42;22.40;;;14.07;;
37855;SDS011;23694;43.274;26.924;2022-10-16T04:25:09;18.97;;;13.00;;
37855;SDS011;23694;43.274;26.924;2022-10-16T04:27:37;17.77;;;12.90;;
37855;SDS011;23694;43.274;26.924;2022-10-16T04:30:04;17.50;;;13.50;;
37855;SDS011;23694;43.274;26.924;2022-10-16T04:32:30;20.77;;;13.17;;
37855;SDS011;23694;43.274;26.924;2022-10-16T04:34:56;17.23;;;12.77;;
37855;SDS011;23694;43.274;26.924;2022-10-16T04:37:23;15.03;;;12.73;;
37855;SDS011;23694;43.274;26.924;2022-10-16T04:39:53;18.07;;;11.90;;
37855;SDS011;23694;43.274;26.924;2022-10-16T04:42:20;19.30;;;12.47;;
37855;SDS011;23694;43.274;26.924;2022-10-16T04:44:46;18.70;;;11.53;;
37855;SDS011;23694;43.274;26.924;2022-10-16T04:47:13;12.63;;;10.93;;
37855;SDS011;23694;43.274;26.924;2022-10-16T04:49:39;14.97;;;11.30;;
37855;SDS011;23694;43.274;26.924;2022-10-16T04:52:05;12.57;;;10.50;;
37855;SDS011;23694;43.274;26.924;2022-10-16T04:54:31;11.73;;;10.37;;
37855;SDS011;23694;43.274;26.924;2022-10-16T04:56:58;16.43;;;12.13;;
37855;SDS011;23694;43.274;26.924;2022-10-16T04:59:24;19.77;;;12.77;;
37855;SDS011;23694;43.274;26.924;2022-10-16T05:01:50;18.80;;;12.87;;
37855;SDS011;23694;43.274;26.924;2022-10-16T05:04:16;21.40;;;12.53;;
37855;SDS011;23694;43.274;26.924;2022-10-16T05:06:42;17.47;;;11.60;;
37855;SDS011;23694;43.274;26.924;2022-10-16T05:09:08;17.43;;;11.80;;
37855;SDS011;23694;43.274;26.924;2022-10-16T05:11:35;22.30;;;13.67;;
37855;SDS011;23694;43.274;26.924;2022-10-16T05:14:01;35.70;;;20.03;;
37855;SDS011;23694;43.274;26.924;2022-10-16T05:16:27;31.50;;;18.93;;
37855;SDS011;23694;43.274;26.924;2022-10-16T05:18:53;23.00;;;15.07;;
37855;SDS011;23694;43.274;26.924;2022-10-16T05:21:20;19.60;;;13.13;;
37855;SDS011;23694;43.274;26.924;2022-10-16T05:23:46;18.83;;;13.57;;
37855;SDS011;23694;43.274;26.924;2022-10-16T05:26:12;22.93;;;13.23;;
37855;SDS011;23694;43.274;26.924;2022-10-16T05:28:38;18.77;;;13.00;;
37855;SDS011;23694;43.274;26.924;2022-10-16T05:31:08;21.63;;;17.03;;
37855;SDS011;23694;43.274;26.924;2022-10-16T05:33:35;14.67;;;11.73;;
37855;SDS011;23694;43.274;26.924;2022-10-16T05:36:02;11.43;;;9.53;;
37855;SDS011;23694;43.274;26.924;2022-10-16T05:38:29;23.27;;;15.47;;
37855;SDS011;23694;43.274;26.924;2022-10-16T05:40:55;13.57;;;9.77;;
37855;SDS011;23694;43.274;26.924;2022-10-16T05:43:22;13.57;;;9.60;;
37855;SDS011;23694;43.274;26.924;2022-10-16T05:45:59;13.23;;;8.17;;
37855;SDS011;23694;43.274;26.924;2022-10-16T05:48:30;12.30;;;8.00;;
37855;SDS011;23694;43.274;26.924;2022-10-16T05:50:57;11.40;;;7.53;;
37855;SDS011;23694;43.274;26.924;2022-10-16T05:53:24;16.67;;;8.97;;
37855;SDS011;23694;43.274;26.924;2022-10-16T05:55:52;13.33;;;7.90;;
37855;SDS011;23694;43.274;26.924;2022-10-16T05:58:19;14.90;;;9.07;;
37855;SDS011;23694;43.274;26.924;2022-10-16T06:00:52;14.67;;;9.20;;
37855;SDS011;23694;43.274;26.924;2022-10-16T06:03:18;16.43;;;11.57;;
37855;SDS011;23694;43.274;26.924;2022-10-16T06:05:44;12.67;;;9.47;;
37855;SDS011;23694;43.274;26.924;2022-10-16T06:08:11;17.63;;;13.60;;
37855;SDS011;23694;43.274;26.924;2022-10-16T06:10:37;17.50;;;9.93;;
37855;SDS011;23694;43.274;26.924;2022-10-16T06:13:03;13.07;;;8.67;;
37855;SDS011;23694;43.274;26.924;2022-10-16T06:15:29;25.30;;;16.33;;
37855;SDS011;23694;43.274;26.924;2022-10-16T06:17:55;12.77;;;8.37;;
37855;SDS011;23694;43.274;26.924;2022-10-16T06:20:21;23.27;;;16.80;;
37855;SDS011;23694;43.274;26.924;2022-10-16T06:22:47;12.27;;;8.20;;
37855;SDS011;23694;43.274;26.924;2022-10-16T06:25:13;18.60;;;13.13;;
37855;SDS011;23694;43.274;26.924;2022-10-16T06:27:39;15.37;;;10.00;;
37855;SDS011;23694;43.274;26.924;2022-10-16T06:30:06;13.47;;;7.33;;
37855;SDS011;23694;43.274;26.924;2022-10-16T06:32:33;10.30;;;6.27;;
37855;SDS011;23694;43.274;26.924;2022-10-16T06:34:59;8.53;;;5.40;;
37855;SDS011;23694;43.274;26.924;2022-10-16T06:37:26;10.77;;;6.30;;
37855;SDS011;23694;43.274;26.924;2022-10-16T06:39:52;10.20;;;5.60;;
37855;SDS011;23694;43.274;26.924;2022-10-16T06:42:18;8.27;;;5.30;;
37855;SDS011;23694;43.274;26.924;2022-10-16T06:44:44;10.27;;;5.80;;
37855;SDS011;23694;43.274;26.924;2022-10-16T06:47:11;9.80;;;5.63;;
37855;SDS011;23694;43.274;26.924;2022-10-16T06:49:37;12.93;;;5.73;;
37855;SDS011;23694;43.274;26.924;2022-10-16T06:52:03;8.17;;;5.67;;
37855;SDS011;23694;43.274;26.924;2022-10-16T06:54:29;11.13;;;5.43;;
37855;SDS011;23694;43.274;26.924;2022-10-16T06:56:55;8.33;;;5.87;;
37855;SDS011;23694;43.274;26.924;2022-10-16T06:59:21;9.17;;;5.80;;
37855;SDS011;23694;43.274;26.924;2022-10-16T07:01:48;9.07;;;6.30;;
37855;SDS011;23694;43.274;26.924;2022-10-16T07:04:14;10.73;;;5.77;;
37855;SDS011;23694;43.274;26.924;2022-10-16T07:06:40;8.80;;;5.70;;
37855;SDS011;23694;43.274;26.924;2022-10-16T07:09:08;8.70;;;5.83;;
37855;SDS011;23694;43.274;26.924;2022-10-16T07:11:38;9.82;;;6.03;;
37855;SDS011;23694;43.274;26.924;2022-10-16T07:14:10;8.30;;;5.47;;
37855;SDS011;23694;43.274;26.924;2022-10-16T07:16:40;11.90;;;8.20;;
37855;SDS011;23694;43.274;26.924;2022-10-16T07:19:07;11.07;;;8.37;;
37855;SDS011;23694;43.274;26.924;2022-10-16T07:21:34;12.27;;;8.70;;
37855;SDS011;23694;43.274;26.924;2022-10-16T07:24:04;16.27;;;9.13;;
37855;SDS011;23694;43.274;26.924;2022-10-16T07:26:32;13.37;;;6.90;;
37855;SDS011;23694;43.274;26.924;2022-10-16T07:29:00;12.97;;;6.70;;
37855;SDS011;23694;43.274;26.924;2022-10-16T07:31:26;8.60;;;5.13;;
37855;SDS011;23694;43.274;26.924;2022-10-16T07:33:53;8.03;;;4.80;;
37855;SDS011;23694;43.274;26.924;2022-10-16T07:36:19;6.00;;;4.17;;
37855;SDS011;23694;43.274;26.924;2022-10-16T07:38:46;8.90;;;4.73;;
37855;SDS011;23694;43.274;26.924;2022-10-16T07:41:13;9.10;;;4.10;;
37855;SDS011;23694;43.274;26.924;2022-10-16T07:43:48;8.13;;;3.50;;
37855;SDS011;23694;43.274;26.924;2022-10-16T07:46:16;6.93;;;3.50;;
37855;SDS011;23694;43.274;26.924;2022-10-16T07:48:43;6.77;;;3.40;;
37855;SDS011;23694;43.274;26.924;2022-10-16T07:51:13;15.43;;;10.83;;
37855;SDS011;23694;43.274;26.924;2022-10-16T07:53:41;8.87;;;4.00;;
37855;SDS011;23694;43.274;26.924;2022-10-16T07:56:07;8.33;;;3.63;;
37855;SDS011;23694;43.274;26.924;2022-10-16T07:58:34;6.20;;;3.80;;
37855;SDS011;23694;43.274;26.924;2022-10-16T08:01:05;9.17;;;4.27;;
37855;SDS011;23694;43.274;26.924;2022-10-16T08:03:32;11.90;;;5.63;;
37855;SDS011;23694;43.274;26.924;2022-10-16T08:05:59;8.70;;;4.90;;
37855;SDS011;23694;43.274;26.924;2022-10-16T08:08:26;8.07;;;4.47;;
37855;SDS011;23694;43.274;26.924;2022-10-16T08:10:52;7.10;;;5.00;;
37855;SDS011;23694;43.274;26.924;2022-10-16T08:13:19;7.93;;;3.83;;
37855;SDS011;23694;43.274;26.924;2022-10-16T08:15:45;8.47;;;3.57;;
37855;SDS011;23694;43.274;26.924;2022-10-16T08:18:12;6.73;;;3.20;;
37855;SDS011;23694;43.274;26.924;2022-10-16T08:20:40;6.23;;;2.70;;
37855;SDS011;23694;43.274;26.924;2022-10-16T08:23:07;6.30;;;3.13;;
37855;SDS011;23694;43.274;26.924;2022-10-16T08:25:35;4.03;;;2.80;;
37855;SDS011;23694;43.274;26.924;2022-10-16T08:28:05;5.80;;;2.90;;
37855;SDS011;23694;43.274;26.924;2022-10-16T08:32:59;9.03;;;3.00;;
37855;SDS011;23694;43.274;26.924;2022-10-16T08:35:26;7.60;;;3.57;;
37855;SDS011;23694;43.274;26.924;2022-10-16T08:37:52;9.17;;;3.90;;
37855;SDS011;23694;43.274;26.924;2022-10-16T08:40:19;5.37;;;3.20;;
37855;SDS011;23694;43.274;26.924;2022-10-16T08:42:59;5.00;;;3.08;;
37855;SDS011;23694;43.274;26.924;2022-10-16T08:45:48;5.27;;;3.20;;
37855;SDS011;23694;43.274;26.924;2022-10-16T08:50:55;8.53;;;5.23;;
37855;SDS011;23694;43.274;26.924;2022-10-16T08:53:26;6.93;;;3.50;;
37855;SDS011;23694;43.274;26.924;2022-10-16T08:55:56;9.00;;;3.50;;
37855;SDS011;23694;43.274;26.924;2022-10-16T08:58:27;6.93;;;3.20;;
37855;SDS011;23694;43.274;26.924;2022-10-16T09:00:58;7.82;;;5.07;;
37855;SDS011;23694;43.274;26.924;2022-10-16T09:06:10;5.47;;;3.53;;
37855;SDS011;23694;43.274;26.924;2022-10-16T09:11:51;6.03;;;3.10;;
37855;SDS011;23694;43.274;26.924;2022-10-16T09:16:53;9.33;;;3.73;;
37855;SDS011;23694;43.274;26.924;2022-10-16T09:19:25;6.33;;;2.90;;
37855;SDS011;23694;43.274;26.924;2022-10-16T09:22:01;5.20;;;3.13;;
37855;SDS011;23694;43.274;26.924;2022-10-16T09:24:40;7.60;;;3.27;;
37855;SDS011;23694;43.274;26.924;2022-10-16T09:27:13;4.63;;;2.90;;
37855;SDS011;23694;43.274;26.924;2022-10-16T09:29:40;13.83;;;9.53;;
37855;SDS011;23694;43.274;26.924;2022-10-16T09:32:14;6.17;;;3.40;;
37855;SDS011;23694;43.274;26.924;2022-10-16T09:34:45;4.90;;;3.27;;
37855;SDS011;23694;43.274;26.924;2022-10-16T09:37:18;5.55;;;2.85;;
37855;SDS011;23694;43.274;26.924;2022-10-16T09:39:49;8.32;;;3.20;;
37855;SDS011;23694;43.274;26.924;2022-10-16T09:42:20;11.17;;;4.50;;
37855;SDS011;23694;43.274;26.924;2022-10-16T09:44:53;29.90;;;21.53;;
37855;SDS011;23694;43.274;26.924;2022-10-16T09:47:20;11.07;;;6.13;;
37855;SDS011;23694;43.274;26.924;2022-10-16T09:50:03;5.93;;;2.97;;
37855;SDS011;23694;43.274;26.924;2022-10-16T09:52:44;4.67;;;3.20;;
37855;SDS011;23694;43.274;26.924;2022-10-16T09:55:15;5.97;;;3.47;;
37855;SDS011;23694;43.274;26.924;2022-10-16T09:57:52;9.73;;;3.75;;
37855;SDS011;23694;43.274;26.924;2022-10-16T10:00:19;5.73;;;3.20;;
37855;SDS011;23694;43.274;26.924;2022-10-16T10:02:47;8.87;;;3.30;;
37855;SDS011;23694;43.274;26.924;2022-10-16T10:05:32;4.63;;;3.33;;
37855;SDS011;23694;43.274;26.924;2022-10-16T10:07:59;11.63;;;3.37;;
37855;SDS011;23694;43.274;26.924;2022-10-16T10:10:37;7.77;;;3.67;;
37855;SDS011;23694;43.274;26.924;2022-10-16T10:13:20;4.43;;;3.17;;
37855;SDS011;23694;43.274;26.924;2022-10-16T10:18:16;9.20;;;3.33;;
37855;SDS011;23694;43.274;26.924;2022-10-16T10:20:45;5.70;;;3.33;;
37855;SDS011;23694;43.274;26.924;2022-10-16T10:23:22;8.53;;;3.60;;
37855;SDS011;23694;43.274;26.924;2022-10-16T10:25:52;4.83;;;3.07;;
37855;SDS011;23694;43.274;26.924;2022-10-16T10:28:42;9.17;;;3.67;;
37855;SDS011;23694;43.274;26.924;2022-10-16T10:31:24;6.57;;;3.20;;
37855;SDS011;23694;43.274;26.924;2022-10-16T10:36:39;6.80;;;3.13;;
37855;SDS011;23694;43.274;26.924;2022-10-16T10:41:57;5.63;;;3.23;;
37855;SDS011;23694;43.274;26.924;2022-10-16T10:55:50;4.83;;;2.93;;
37855;SDS011;23694;43.274;26.924;2022-10-16T11:01:16;4.30;;;2.57;;
37855;SDS011;23694;43.274;26.924;2022-10-16T11:04:04;6.07;;;2.80;;
37855;SDS011;23694;43.274;26.924;2022-10-16T11:06:43;5.73;;;3.00;;
37855;SDS011;23694;43.274;26.924;2022-10-16T11:09:24;5.97;;;2.80;;
37855;SDS011;23694;43.274;26.924;2022-10-16T11:12:01;5.30;;;2.77;;
37855;SDS011;23694;43.274;26.924;2022-10-16T11:14:30;4.37;;;2.43;;
37855;SDS011;23694;43.274;26.924;2022-10-16T11:16:58;6.30;;;2.30;;
37855;SDS011;23694;43.274;26.924;2022-10-16T11:19:37;5.03;;;2.97;;
37855;SDS011;23694;43.274;26.924;2022-10-16T11:24:57;19.20;;;12.73;;
37855;SDS011;23694;43.274;26.924;2022-10-16T11:27:54;4.77;;;1.90;;
37855;SDS011;23694;43.274;26.924;2022-10-16T11:30:27;5.13;;;2.30;;
37855;SDS011;23694;43.274;26.924;2022-10-16T11:40:29;4.57;;;2.23;;
37855;SDS011;23694;43.274;26.924;2022-10-16T11:43:03;4.93;;;2.43;;
37855;SDS011;23694;43.274;26.924;2022-10-16T11:45:39;5.37;;;2.37;;
37855;SDS011;23694;43.274;26.924;2022-10-16T11:48:14;5.30;;;2.43;;
37855;SDS011;23694;43.274;26.924;2022-10-16T11:50:50;4.93;;;2.10;;
37855;SDS011;23694;43.274;26.924;2022-10-16T11:53:38;4.63;;;2.08;;
37855;SDS011;23694;43.274;26.924;2022-10-16T11:56:15;5.80;;;3.37;;
37855;SDS011;23694;43.274;26.924;2022-10-16T12:01:43;4.13;;;2.27;;
37855;SDS011;23694;43.274;26.924;2022-10-16T12:04:27;5.17;;;2.43;;
37855;SDS011;23694;43.274;26.924;2022-10-16T12:07:07;6.40;;;2.70;;
37855;SDS011;23694;43.274;26.924;2022-10-16T12:09:38;4.20;;;2.47;;
37855;SDS011;23694;43.274;26.924;2022-10-16T12:12:25;3.43;;;1.90;;
37855;SDS011;23694;43.274;26.924;2022-10-16T12:14:59;2.87;;;1.90;;
37855;SDS011;23694;43.274;26.924;2022-10-16T12:17:37;3.70;;;1.90;;
37855;SDS011;23694;43.274;26.924;2022-10-16T12:25:40;5.47;;;2.13;;
37855;SDS011;23694;43.274;26.924;2022-10-16T12:30:38;4.77;;;1.90;;
37855;SDS011;23694;43.274;26.924;2022-10-16T12:33:19;3.53;;;2.00;;
37855;SDS011;23694;43.274;26.924;2022-10-16T12:35:48;2.87;;;1.60;;
37855;SDS011;23694;43.274;26.924;2022-10-16T12:38:15;5.93;;;2.47;;
37855;SDS011;23694;43.274;26.924;2022-10-16T12:40:54;5.20;;;2.20;;
37855;SDS011;23694;43.274;26.924;2022-10-16T12:48:43;4.67;;;2.50;;
37855;SDS011;23694;43.274;26.924;2022-10-16T12:53:59;12.93;;;3.20;;
37855;SDS011;23694;43.274;26.924;2022-10-16T13:10:14;3.83;;;2.50;;
37855;SDS011;23694;43.274;26.924;2022-10-16T13:21:25;5.27;;;2.30;;
37855;SDS011;23694;43.274;26.924;2022-10-16T13:27:14;7.70;;;2.47;;
37855;SDS011;23694;43.274;26.924;2022-10-16T13:29:54;7.15;;;2.30;;
37855;SDS011;23694;43.274;26.924;2022-10-16T13:32:33;6.47;;;2.40;;
37855;SDS011;23694;43.274;26.924;2022-10-16T13:34:59;6.73;;;4.40;;
37855;SDS011;23694;43.274;26.924;2022-10-16T13:37:26;10.67;;;5.07;;
37855;SDS011;23694;43.274;26.924;2022-10-16T13:40:02;6.10;;;2.80;;
37855;SDS011;23694;43.274;26.924;2022-10-16T13:42:39;9.40;;;3.97;;
37855;SDS011;23694;43.274;26.924;2022-10-16T13:45:16;3.40;;;2.67;;
37855;SDS011;23694;43.274;26.924;2022-10-16T13:47:44;7.77;;;2.70;;
37855;SDS011;23694;43.274;26.924;2022-10-16T13:50:14;3.50;;;1.87;;
37855;SDS011;23694;43.274;26.924;2022-10-16T13:52:42;5.17;;;2.13;;
37855;SDS011;23694;43.274;26.924;2022-10-16T13:57:39;5.43;;;2.50;;
37855;SDS011;23694;43.274;26.924;2022-10-16T14:00:19;6.27;;;2.50;;
37855;SDS011;23694;43.274;26.924;2022-10-16T14:02:50;5.88;;;2.78;;
37855;SDS011;23694;43.274;26.924;2022-10-16T14:05:21;6.57;;;2.70;;
37855;SDS011;23694;43.274;26.924;2022-10-16T14:07:48;5.47;;;2.40;;
37855;SDS011;23694;43.274;26.924;2022-10-16T14:10:27;5.90;;;2.43;;
37855;SDS011;23694;43.274;26.924;2022-10-16T14:13:03;8.23;;;2.70;;
37855;SDS011;23694;43.274;26.924;2022-10-16T14:15:32;5.07;;;2.33;;
37855;SDS011;23694;43.274;26.924;2022-10-16T14:18:01;5.50;;;2.63;;
37855;SDS011;23694;43.274;26.924;2022-10-16T14:20:29;4.00;;;2.80;;
37855;SDS011;23694;43.274;26.924;2022-10-16T14:23:03;9.37;;;3.20;;
37855;SDS011;23694;43.274;26.924;2022-10-16T14:25:44;9.57;;;4.17;;
37855;SDS011;23694;43.274;26.924;2022-10-16T14:28:20;7.23;;;3.57;;
37855;SDS011;23694;43.274;26.924;2022-10-16T14:30:52;6.30;;;3.37;;
37855;SDS011;23694;43.274;26.924;2022-10-16T14:35:57;8.33;;;3.40;;
37855;SDS011;23694;43.274;26.924;2022-10-16T14:38:25;5.23;;;2.57;;
37855;SDS011;23694;43.274;26.924;2022-10-16T14:40:51;5.83;;;2.97;;
37855;SDS011;23694;43.274;26.924;2022-10-16T14:43:20;5.57;;;3.03;;
37855;SDS011;23694;43.274;26.924;2022-10-16T14:45:51;6.67;;;3.50;;
37855;SDS011;23694;43.274;26.924;2022-10-16T14:48:20;6.40;;;2.80;;
37855;SDS011;23694;43.274;26.924;2022-10-16T14:50:47;7.30;;;3.70;;
37855;SDS011;23694;43.274;26.924;2022-10-16T14:53:13;9.93;;;3.30;;
37855;SDS011;23694;43.274;26.924;2022-10-16T14:55:40;6.33;;;3.70;;
37855;SDS011;23694;43.274;26.924;2022-10-16T14:58:16;9.03;;;3.40;;
37855;SDS011;23694;43.274;26.924;2022-10-16T15:00:45;8.00;;;3.90;;
37855;SDS011;23694;43.274;26.924;2022-10-16T15:03:12;8.13;;;3.80;;
37855;SDS011;23694;43.274;26.924;2022-10-16T15:05:38;8.23;;;3.97;;
37855;SDS011;23694;43.274;26.924;2022-10-16T15:08:04;7.23;;;3.83;;
37855;SDS011;23694;43.274;26.924;2022-10-16T15:10:31;9.70;;;4.67;;
37855;SDS011;23694;43.274;26.924;2022-10-16T15:13:02;9.57;;;3.93;;
37855;SDS011;23694;43.274;26.924;2022-10-16T15:15:34;10.97;;;4.50;;
37855;SDS011;23694;43.274;26.924;2022-10-16T15:18:03;11.67;;;5.53;;
37855;SDS011;23694;43.274;26.924;2022-10-16T15:20:31;13.30;;;5.27;;
37855;SDS011;23694;43.274;26.924;2022-10-16T15:23:00;15.17;;;5.77;;
37855;SDS011;23694;43.274;26.924;2022-10-16T15:25:30;13.97;;;6.63;;
37855;SDS011;23694;43.274;26.924;2022-10-16T15:28:23;15.60;;;6.70;;
37855;SDS011;23694;43.274;26.924;2022-10-16T15:30:52;11.00;;;5.93;;
37855;SDS011;23694;43.274;26.924;2022-10-16T15:33:20;15.33;;;6.93;;
37855;SDS011;23694;43.274;26.924;2022-10-16T15:35:49;13.53;;;7.23;;
37855;SDS011;23694;43.274;26.924;2022-10-16T15:38:18;20.67;;;7.77;;
37855;SDS011;23694;43.274;26.924;2022-10-16T15:40:45;28.60;;;13.83;;
37855;SDS011;23694;43.274;26.924;2022-10-16T15:43:12;33.77;;;21.03;;
37855;SDS011;23694;43.274;26.924;2022-10-16T15:45:38;14.33;;;8.27;;
37855;SDS011;23694;43.274;26.924;2022-10-16T15:48:05;14.10;;;8.63;;
37855;SDS011;23694;43.274;26.924;2022-10-16T15:50:31;13.50;;;7.83;;
37855;SDS011;23694;43.274;26.924;2022-10-16T15:52:58;28.77;;;20.53;;
37855;SDS011;23694;43.274;26.924;2022-10-16T15:55:24;16.73;;;9.53;;
37855;SDS011;23694;43.274;26.924;2022-10-16T15:57:50;19.70;;;12.07;;
37855;SDS011;23694;43.274;26.924;2022-10-16T16:00:17;14.07;;;8.30;;
37855;SDS011;23694;43.274;26.924;2022-10-16T16:02:51;13.20;;;8.77;;
37855;SDS011;23694;43.274;26.924;2022-10-16T16:05:19;18.17;;;8.73;;
37855;SDS011;23694;43.274;26.924;2022-10-16T16:07:47;24.10;;;9.73;;
37855;SDS011;23694;43.274;26.924;2022-10-16T16:10:14;13.33;;;9.13;;
37855;SDS011;23694;43.274;26.924;2022-10-16T16:12:40;19.93;;;9.40;;
37855;SDS011;23694;43.274;26.924;2022-10-16T16:15:07;14.50;;;9.17;;
37855;SDS011;23694;43.274;26.924;2022-10-16T16:17:34;21.10;;;12.83;;
37855;SDS011;23694;43.274;26.924;2022-10-16T16:20:02;18.83;;;9.90;;
37855;SDS011;23694;43.274;26.924;2022-10-16T16:22:30;87.87;;;44.20;;
37855;SDS011;23694;43.274;26.924;2022-10-16T16:24:56;34.57;;;17.93;;
37855;SDS011;23694;43.274;26.924;2022-10-16T16:27:22;42.87;;;21.87;;
37855;SDS011;23694;43.274;26.924;2022-10-16T16:29:50;47.67;;;27.70;;